Appam, ND

2:55 PM CDT on August 24, 2016 (GMT -0500)
KNDALAMO3 | | Change Station

Elev 2090 ft 48.49 °N, 103.51 °W | Updated 8 minutes ago

Mostly Cloudy
Mostly Cloudy
61.3 °F
Feels Like 61.3 °F
N
20.0
Wind Variable Wind from West
Gusts 29.0 mph

Today
High -- | Low -- °F
--% Chance of Precip.
Yesterday
High -- | Low -- °F
Precip. -- in
Pressure 30.00 in
Visibility 9.0 miles
Clouds Mostly Cloudy 3100 ft
Mostly Cloudy 3900 ft
Dew Point 51 °F
Humidity 70%
Rainfall 0.00 in
Snow Depth Not available.
7:00 AM 8:50 PM
Waning Gibbous, 54% visible
METAR KD50 241935Z AUTO 30018G24KT 9SM BKN031 BKN039 17/09 A3000 RMK AO2
Pressure 30.00 in
Visibility 9.0 miles
Clouds Mostly Cloudy 3100 ft
Mostly Cloudy 3900 ft
Dew Point 51 °F
Humidity 70%
Rainfall 0.00 in
Snow Depth Not available.
7:00 AM 8:50 PM
Waning Gibbous, 54% visible
METAR KD50 241935Z AUTO 30018G24KT 9SM BKN031 BKN039 17/09 A3000 RMK AO2

10-Day Weather Forecast

Almanac

Astronomy

Aug. 24, 2016 Rise Set
Actual Time
Civil Twilight
Nautical Twilight
Astronomical Twilight
Moon
Length of Visible Light
Length of Day
Tomorrow will be .
, % of the Moon is Illuminated

Today's Extremes

State Highs State Lows

Community

WunderPhotos

Upload Photos

1,934,690 photos uploaded!

WunderBlog® & News

Nearby

Air Quality

  Air Quality AQ Index Pollutant
Not available.

Snow Depth

Station Depth Elevation

Earthquake Activity

City Distance Mag. Time & Date
Minimum magnitude displayed is 2.5.

Coastal Water Temperatures

Place Temperature

Stations

Nearby Weather Stations

Station Location Temp. Windchill Dew Point Humidity Wind Precip. Elev Updated Type
                   

Watches & Warnings

There are currently no watches in effect.